sensor_id;sensor_type;location;lat;lon;timestamp;P1;durP1;ratioP1;P2;durP2;ratioP2
28266;SDS011;15525;45.568;5.448;2022-07-09T00:01:50;6.00;;;4.55;;
28266;SDS011;15525;45.568;5.448;2022-07-09T00:04:16;5.95;;;4.32;;
28266;SDS011;15525;45.568;5.448;2022-07-09T00:06:41;6.50;;;4.22;;
28266;SDS011;15525;45.568;5.448;2022-07-09T00:09:07;5.80;;;4.53;;
28266;SDS011;15525;45.568;5.448;2022-07-09T00:11:33;6.60;;;4.75;;
28266;SDS011;15525;45.568;5.448;2022-07-09T00:13:58;5.97;;;4.18;;
28266;SDS011;15525;45.568;5.448;2022-07-09T00:16:24;7.13;;;4.60;;
28266;SDS011;15525;45.568;5.448;2022-07-09T00:18:49;5.97;;;4.10;;
28266;SDS011;15525;45.568;5.448;2022-07-09T00:21:14;5.80;;;4.60;;
28266;SDS011;15525;45.568;5.448;2022-07-09T00:23:40;10.98;;;5.13;;
28266;SDS011;15525;45.568;5.448;2022-07-09T00:26:05;7.65;;;4.75;;
28266;SDS011;15525;45.568;5.448;2022-07-09T00:28:31;6.65;;;4.88;;
28266;SDS011;15525;45.568;5.448;2022-07-09T00:30:56;5.78;;;4.15;;
28266;SDS011;15525;45.568;5.448;2022-07-09T00:33:22;6.90;;;4.55;;
28266;SDS011;15525;45.568;5.448;2022-07-09T00:35:47;9.43;;;5.20;;
28266;SDS011;15525;45.568;5.448;2022-07-09T00:38:12;6.07;;;4.57;;
28266;SDS011;15525;45.568;5.448;2022-07-09T00:40:38;7.40;;;5.00;;
28266;SDS011;15525;45.568;5.448;2022-07-09T00:43:03;5.32;;;3.97;;
28266;SDS011;15525;45.568;5.448;2022-07-09T00:45:39;6.22;;;4.10;;
28266;SDS011;15525;45.568;5.448;2022-07-09T00:48:04;6.75;;;4.57;;
28266;SDS011;15525;45.568;5.448;2022-07-09T00:50:30;7.65;;;4.43;;
28266;SDS011;15525;45.568;5.448;2022-07-09T00:52:56;7.85;;;4.70;;
28266;SDS011;15525;45.568;5.448;2022-07-09T00:55:21;6.47;;;4.40;;
28266;SDS011;15525;45.568;5.448;2022-07-09T00:57:47;5.90;;;4.05;;
28266;SDS011;15525;45.568;5.448;2022-07-09T01:00:13;7.55;;;4.80;;
28266;SDS011;15525;45.568;5.448;2022-07-09T01:02:38;7.80;;;4.70;;
28266;SDS011;15525;45.568;5.448;2022-07-09T01:05:05;8.55;;;4.30;;
28266;SDS011;15525;45.568;5.448;2022-07-09T01:07:31;8.38;;;4.80;;
28266;SDS011;15525;45.568;5.448;2022-07-09T01:09:56;6.60;;;4.70;;
28266;SDS011;15525;45.568;5.448;2022-07-09T01:12:22;7.13;;;4.97;;
28266;SDS011;15525;45.568;5.448;2022-07-09T01:14:47;7.40;;;4.20;;
28266;SDS011;15525;45.568;5.448;2022-07-09T01:17:13;5.65;;;4.78;;
28266;SDS011;15525;45.568;5.448;2022-07-09T01:19:38;7.75;;;4.80;;
28266;SDS011;15525;45.568;5.448;2022-07-09T01:22:04;8.80;;;4.90;;
28266;SDS011;15525;45.568;5.448;2022-07-09T01:24:29;5.65;;;4.30;;
28266;SDS011;15525;45.568;5.448;2022-07-09T01:26:55;8.73;;;4.85;;
28266;SDS011;15525;45.568;5.448;2022-07-09T01:29:21;10.80;;;4.13;;
28266;SDS011;15525;45.568;5.448;2022-07-09T01:31:46;7.85;;;5.03;;
28266;SDS011;15525;45.568;5.448;2022-07-09T01:34:12;6.78;;;4.97;;
28266;SDS011;15525;45.568;5.448;2022-07-09T01:36:37;6.38;;;4.72;;
28266;SDS011;15525;45.568;5.448;2022-07-09T01:39:03;5.50;;;4.85;;
28266;SDS011;15525;45.568;5.448;2022-07-09T01:41:28;5.65;;;4.50;;
28266;SDS011;15525;45.568;5.448;2022-07-09T01:43:55;5.15;;;4.57;;
28266;SDS011;15525;45.568;5.448;2022-07-09T01:46:21;7.68;;;5.38;;
28266;SDS011;15525;45.568;5.448;2022-07-09T01:48:46;9.73;;;5.45;;
28266;SDS011;15525;45.568;5.448;2022-07-09T01:51:12;6.60;;;5.10;;
28266;SDS011;15525;45.568;5.448;2022-07-09T01:53:37;8.27;;;4.85;;
28266;SDS011;15525;45.568;5.448;2022-07-09T01:56:08;8.15;;;5.13;;
28266;SDS011;15525;45.568;5.448;2022-07-09T01:58:35;7.35;;;5.03;;
28266;SDS011;15525;45.568;5.448;2022-07-09T02:01:01;8.40;;;5.43;;
28266;SDS011;15525;45.568;5.448;2022-07-09T02:03:27;8.05;;;4.85;;
28266;SDS011;15525;45.568;5.448;2022-07-09T02:05:53;9.35;;;5.20;;
28266;SDS011;15525;45.568;5.448;2022-07-09T02:08:19;6.53;;;5.10;;
28266;SDS011;15525;45.568;5.448;2022-07-09T02:10:44;9.98;;;5.10;;
28266;SDS011;15525;45.568;5.448;2022-07-09T02:13:11;8.63;;;5.38;;
28266;SDS011;15525;45.568;5.448;2022-07-09T02:15:37;7.93;;;5.45;;
28266;SDS011;15525;45.568;5.448;2022-07-09T02:18:03;7.82;;;5.00;;
28266;SDS011;15525;45.568;5.448;2022-07-09T02:20:29;9.70;;;5.63;;
28266;SDS011;15525;45.568;5.448;2022-07-09T02:22:55;9.35;;;5.18;;
28266;SDS011;15525;45.568;5.448;2022-07-09T02:25:20;7.43;;;5.13;;
28266;SDS011;15525;45.568;5.448;2022-07-09T02:27:46;8.95;;;5.20;;
28266;SDS011;15525;45.568;5.448;2022-07-09T02:30:11;7.93;;;4.95;;
28266;SDS011;15525;45.568;5.448;2022-07-09T02:32:37;8.18;;;5.30;;
28266;SDS011;15525;45.568;5.448;2022-07-09T02:35:04;8.02;;;4.63;;
28266;SDS011;15525;45.568;5.448;2022-07-09T02:37:30;7.22;;;5.07;;
28266;SDS011;15525;45.568;5.448;2022-07-09T02:39:57;7.65;;;5.30;;
28266;SDS011;15525;45.568;5.448;2022-07-09T02:42:22;8.00;;;4.90;;
28266;SDS011;15525;45.568;5.448;2022-07-09T02:44:48;7.32;;;5.35;;
28266;SDS011;15525;45.568;5.448;2022-07-09T02:47:13;9.35;;;5.47;;
28266;SDS011;15525;45.568;5.448;2022-07-09T02:49:38;7.85;;;5.65;;
28266;SDS011;15525;45.568;5.448;2022-07-09T02:52:04;8.73;;;4.85;;
28266;SDS011;15525;45.568;5.448;2022-07-09T02:54:31;8.73;;;5.30;;
28266;SDS011;15525;45.568;5.448;2022-07-09T02:56:57;8.60;;;5.03;;
28266;SDS011;15525;45.568;5.448;2022-07-09T02:59:22;10.13;;;5.38;;
28266;SDS011;15525;45.568;5.448;2022-07-09T03:01:48;9.98;;;5.15;;
28266;SDS011;15525;45.568;5.448;2022-07-09T03:04:13;6.85;;;4.88;;
28266;SDS011;15525;45.568;5.448;2022-07-09T03:06:39;8.07;;;5.60;;
28266;SDS011;15525;45.568;5.448;2022-07-09T03:09:04;7.78;;;5.03;;
28266;SDS011;15525;45.568;5.448;2022-07-09T03:11:29;7.95;;;5.47;;
28266;SDS011;15525;45.568;5.448;2022-07-09T03:13:55;7.70;;;5.03;;
28266;SDS011;15525;45.568;5.448;2022-07-09T03:16:21;8.80;;;5.25;;
28266;SDS011;15525;45.568;5.448;2022-07-09T03:18:46;7.85;;;5.30;;
28266;SDS011;15525;45.568;5.448;2022-07-09T03:21:12;6.50;;;5.63;;
28266;SDS011;15525;45.568;5.448;2022-07-09T03:23:38;8.15;;;5.53;;
28266;SDS011;15525;45.568;5.448;2022-07-09T03:26:04;10.40;;;5.80;;
28266;SDS011;15525;45.568;5.448;2022-07-09T03:28:30;7.90;;;5.55;;
28266;SDS011;15525;45.568;5.448;2022-07-09T03:30:56;9.35;;;5.63;;
28266;SDS011;15525;45.568;5.448;2022-07-09T03:33:21;8.45;;;5.55;;
28266;SDS011;15525;45.568;5.448;2022-07-09T03:35:47;6.43;;;5.13;;
28266;SDS011;15525;45.568;5.448;2022-07-09T03:38:12;9.02;;;5.60;;
28266;SDS011;15525;45.568;5.448;2022-07-09T03:40:37;7.70;;;5.10;;
28266;SDS011;15525;45.568;5.448;2022-07-09T03:43:03;6.85;;;5.65;;
28266;SDS011;15525;45.568;5.448;2022-07-09T03:45:28;6.85;;;5.10;;
28266;SDS011;15525;45.568;5.448;2022-07-09T03:47:54;10.68;;;5.30;;
28266;SDS011;15525;45.568;5.448;2022-07-09T03:50:19;7.00;;;5.32;;
28266;SDS011;15525;45.568;5.448;2022-07-09T03:52:45;7.80;;;5.32;;
28266;SDS011;15525;45.568;5.448;2022-07-09T03:55:10;7.97;;;5.03;;
28266;SDS011;15525;45.568;5.448;2022-07-09T03:57:36;6.82;;;4.95;;
28266;SDS011;15525;45.568;5.448;2022-07-09T04:00:03;11.00;;;5.63;;
28266;SDS011;15525;45.568;5.448;2022-07-09T04:02:32;9.15;;;6.10;;
28266;SDS011;15525;45.568;5.448;2022-07-09T04:04:58;7.60;;;5.35;;
28266;SDS011;15525;45.568;5.448;2022-07-09T04:07:23;9.35;;;5.03;;
28266;SDS011;15525;45.568;5.448;2022-07-09T04:09:51;6.93;;;5.10;;
28266;SDS011;15525;45.568;5.448;2022-07-09T04:12:18;7.93;;;4.80;;
28266;SDS011;15525;45.568;5.448;2022-07-09T04:14:43;8.82;;;5.15;;
28266;SDS011;15525;45.568;5.448;2022-07-09T04:17:09;8.50;;;4.50;;
28266;SDS011;15525;45.568;5.448;2022-07-09T04:19:34;8.25;;;5.35;;
28266;SDS011;15525;45.568;5.448;2022-07-09T04:21:59;7.93;;;5.13;;
28266;SDS011;15525;45.568;5.448;2022-07-09T04:24:27;5.95;;;5.05;;
28266;SDS011;15525;45.568;5.448;2022-07-09T04:26:52;7.55;;;4.90;;
28266;SDS011;15525;45.568;5.448;2022-07-09T04:29:18;8.57;;;5.05;;
28266;SDS011;15525;45.568;5.448;2022-07-09T04:31:43;7.03;;;5.40;;
28266;SDS011;15525;45.568;5.448;2022-07-09T04:34:09;7.70;;;5.72;;
28266;SDS011;15525;45.568;5.448;2022-07-09T04:36:34;9.38;;;5.43;;
28266;SDS011;15525;45.568;5.448;2022-07-09T04:39:00;8.38;;;5.25;;
28266;SDS011;15525;45.568;5.448;2022-07-09T04:41:25;8.43;;;5.15;;
28266;SDS011;15525;45.568;5.448;2022-07-09T04:43:51;7.85;;;6.10;;
28266;SDS011;15525;45.568;5.448;2022-07-09T04:46:16;8.38;;;5.75;;
28266;SDS011;15525;45.568;5.448;2022-07-09T04:48:42;8.93;;;5.28;;
28266;SDS011;15525;45.568;5.448;2022-07-09T04:51:08;10.27;;;5.60;;
28266;SDS011;15525;45.568;5.448;2022-07-09T04:53:33;10.80;;;5.82;;
28266;SDS011;15525;45.568;5.448;2022-07-09T04:55:59;8.85;;;5.72;;
28266;SDS011;15525;45.568;5.448;2022-07-09T04:58:24;10.52;;;5.68;;
28266;SDS011;15525;45.568;5.448;2022-07-09T05:00:50;12.70;;;5.88;;
28266;SDS011;15525;45.568;5.448;2022-07-09T05:03:15;16.10;;;5.93;;
28266;SDS011;15525;45.568;5.448;2022-07-09T05:05:41;9.70;;;5.78;;
28266;SDS011;15525;45.568;5.448;2022-07-09T05:08:06;14.80;;;5.70;;
28266;SDS011;15525;45.568;5.448;2022-07-09T05:10:32;9.48;;;5.63;;
28266;SDS011;15525;45.568;5.448;2022-07-09T05:12:58;18.00;;;6.53;;
28266;SDS011;15525;45.568;5.448;2022-07-09T05:15:23;9.80;;;5.20;;
28266;SDS011;15525;45.568;5.448;2022-07-09T05:17:48;9.30;;;5.75;;
28266;SDS011;15525;45.568;5.448;2022-07-09T05:20:14;10.73;;;5.72;;
28266;SDS011;15525;45.568;5.448;2022-07-09T05:22:39;10.85;;;6.50;;
28266;SDS011;15525;45.568;5.448;2022-07-09T05:25:05;10.10;;;6.10;;
28266;SDS011;15525;45.568;5.448;2022-07-09T05:27:31;10.52;;;6.00;;
28266;SDS011;15525;45.568;5.448;2022-07-09T05:29:57;12.50;;;6.65;;
28266;SDS011;15525;45.568;5.448;2022-07-09T05:32:22;8.65;;;6.22;;
28266;SDS011;15525;45.568;5.448;2022-07-09T05:34:48;11.07;;;7.30;;
28266;SDS011;15525;45.568;5.448;2022-07-09T05:37:13;11.57;;;8.27;;
28266;SDS011;15525;45.568;5.448;2022-07-09T05:39:39;14.90;;;8.77;;
28266;SDS011;15525;45.568;5.448;2022-07-09T05:42:05;11.40;;;7.38;;
28266;SDS011;15525;45.568;5.448;2022-07-09T05:44:30;9.75;;;6.47;;
28266;SDS011;15525;45.568;5.448;2022-07-09T05:46:56;11.65;;;6.75;;
28266;SDS011;15525;45.568;5.448;2022-07-09T05:49:22;9.80;;;6.00;;
28266;SDS011;15525;45.568;5.448;2022-07-09T05:51:47;10.95;;;6.68;;
28266;SDS011;15525;45.568;5.448;2022-07-09T05:54:13;13.15;;;6.88;;
28266;SDS011;15525;45.568;5.448;2022-07-09T05:56:38;10.90;;;6.30;;
28266;SDS011;15525;45.568;5.448;2022-07-09T05:59:04;10.82;;;5.65;;
28266;SDS011;15525;45.568;5.448;2022-07-09T06:01:29;9.05;;;6.60;;
28266;SDS011;15525;45.568;5.448;2022-07-09T06:03:55;8.90;;;6.22;;
28266;SDS011;15525;45.568;5.448;2022-07-09T06:06:20;12.40;;;6.57;;
28266;SDS011;15525;45.568;5.448;2022-07-09T06:08:46;10.85;;;6.18;;
28266;SDS011;15525;45.568;5.448;2022-07-09T06:11:11;10.45;;;6.18;;
28266;SDS011;15525;45.568;5.448;2022-07-09T06:13:37;11.68;;;6.50;;
28266;SDS011;15525;45.568;5.448;2022-07-09T06:16:03;8.65;;;6.45;;
28266;SDS011;15525;45.568;5.448;2022-07-09T06:18:29;10.10;;;5.97;;
28266;SDS011;15525;45.568;5.448;2022-07-09T06:20:54;8.70;;;5.80;;
28266;SDS011;15525;45.568;5.448;2022-07-09T06:23:19;13.73;;;6.22;;
28266;SDS011;15525;45.568;5.448;2022-07-09T06:25:46;9.15;;;5.75;;
28266;SDS011;15525;45.568;5.448;2022-07-09T06:28:12;9.63;;;5.53;;
28266;SDS011;15525;45.568;5.448;2022-07-09T06:30:37;11.43;;;6.22;;
28266;SDS011;15525;45.568;5.448;2022-07-09T06:33:03;8.02;;;4.80;;
28266;SDS011;15525;45.568;5.448;2022-07-09T06:35:28;8.10;;;4.80;;
28266;SDS011;15525;45.568;5.448;2022-07-09T06:37:54;9.70;;;5.20;;
28266;SDS011;15525;45.568;5.448;2022-07-09T06:40:19;6.88;;;4.90;;
28266;SDS011;15525;45.568;5.448;2022-07-09T06:42:44;5.95;;;4.55;;
28266;SDS011;15525;45.568;5.448;2022-07-09T06:45:10;8.52;;;4.75;;
28266;SDS011;15525;45.568;5.448;2022-07-09T06:47:36;9.40;;;4.47;;
28266;SDS011;15525;45.568;5.448;2022-07-09T06:50:02;10.90;;;5.90;;
28266;SDS011;15525;45.568;5.448;2022-07-09T06:52:28;9.00;;;5.15;;
28266;SDS011;15525;45.568;5.448;2022-07-09T06:54:53;7.38;;;5.05;;
28266;SDS011;15525;45.568;5.448;2022-07-09T06:57:19;9.68;;;5.20;;
28266;SDS011;15525;45.568;5.448;2022-07-09T06:59:45;7.03;;;4.82;;
28266;SDS011;15525;45.568;5.448;2022-07-09T07:02:11;10.65;;;5.55;;
28266;SDS011;15525;45.568;5.448;2022-07-09T07:04:37;6.57;;;4.90;;
28266;SDS011;15525;45.568;5.448;2022-07-09T07:07:02;6.97;;;5.07;;
28266;SDS011;15525;45.568;5.448;2022-07-09T07:09:29;7.72;;;4.88;;
28266;SDS011;15525;45.568;5.448;2022-07-09T07:11:55;9.25;;;4.90;;
28266;SDS011;15525;45.568;5.448;2022-07-09T07:14:20;8.35;;;5.50;;
28266;SDS011;15525;45.568;5.448;2022-07-09T07:16:45;8.18;;;5.35;;
28266;SDS011;15525;45.568;5.448;2022-07-09T07:19:11;6.28;;;5.15;;
28266;SDS011;15525;45.568;5.448;2022-07-09T07:21:37;7.45;;;4.90;;
28266;SDS011;15525;45.568;5.448;2022-07-09T07:24:03;9.40;;;5.15;;
28266;SDS011;15525;45.568;5.448;2022-07-09T07:26:29;8.05;;;5.30;;
28266;SDS011;15525;45.568;5.448;2022-07-09T07:28:54;8.25;;;4.80;;
28266;SDS011;15525;45.568;5.448;2022-07-09T07:31:20;7.82;;;4.78;;
28266;SDS011;15525;45.568;5.448;2022-07-09T07:33:47;8.73;;;5.10;;
28266;SDS011;15525;45.568;5.448;2022-07-09T07:36:13;8.25;;;5.30;;
28266;SDS011;15525;45.568;5.448;2022-07-09T07:38:39;8.70;;;5.25;;
28266;SDS011;15525;45.568;5.448;2022-07-09T07:41:04;7.55;;;4.72;;
28266;SDS011;15525;45.568;5.448;2022-07-09T07:43:30;10.77;;;4.88;;
28266;SDS011;15525;45.568;5.448;2022-07-09T07:45:56;11.52;;;5.22;;
28266;SDS011;15525;45.568;5.448;2022-07-09T07:48:21;8.02;;;5.10;;
28266;SDS011;15525;45.568;5.448;2022-07-09T07:50:46;10.68;;;4.85;;
28266;SDS011;15525;45.568;5.448;2022-07-09T07:53:12;10.30;;;4.70;;
28266;SDS011;15525;45.568;5.448;2022-07-09T07:55:37;11.10;;;4.75;;
28266;SDS011;15525;45.568;5.448;2022-07-09T07:58:04;6.50;;;4.70;;
28266;SDS011;15525;45.568;5.448;2022-07-09T08:00:30;8.48;;;4.80;;
28266;SDS011;15525;45.568;5.448;2022-07-09T08:02:56;9.75;;;4.82;;
28266;SDS011;15525;45.568;5.448;2022-07-09T08:05:21;6.13;;;4.60;;
28266;SDS011;15525;45.568;5.448;2022-07-09T08:07:47;8.15;;;4.75;;
28266;SDS011;15525;45.568;5.448;2022-07-09T08:10:12;10.07;;;4.97;;
28266;SDS011;15525;45.568;5.448;2022-07-09T08:12:37;10.30;;;4.78;;
28266;SDS011;15525;45.568;5.448;2022-07-09T08:15:03;7.50;;;4.70;;
28266;SDS011;15525;45.568;5.448;2022-07-09T08:17:29;6.63;;;4.30;;
28266;SDS011;15525;45.568;5.448;2022-07-09T08:19:54;7.55;;;4.47;;
28266;SDS011;15525;45.568;5.448;2022-07-09T08:22:20;7.15;;;5.07;;
28266;SDS011;15525;45.568;5.448;2022-07-09T08:24:45;5.75;;;4.18;;
28266;SDS011;15525;45.568;5.448;2022-07-09T08:27:11;8.63;;;4.25;;
28266;SDS011;15525;45.568;5.448;2022-07-09T08:29:36;6.80;;;4.20;;
28266;SDS011;15525;45.568;5.448;2022-07-09T08:32:02;8.35;;;4.53;;
28266;SDS011;15525;45.568;5.448;2022-07-09T08:34:29;7.10;;;4.65;;
28266;SDS011;15525;45.568;5.448;2022-07-09T08:36:55;8.35;;;4.30;;
28266;SDS011;15525;45.568;5.448;2022-07-09T08:39:20;8.07;;;4.68;;
28266;SDS011;15525;45.568;5.448;2022-07-09T08:41:45;7.82;;;4.97;;
28266;SDS011;15525;45.568;5.448;2022-07-09T08:44:12;7.20;;;4.78;;
28266;SDS011;15525;45.568;5.448;2022-07-09T08:46:41;7.53;;;4.70;;
28266;SDS011;15525;45.568;5.448;2022-07-09T08:49:06;7.30;;;4.40;;
28266;SDS011;15525;45.568;5.448;2022-07-09T08:51:33;8.32;;;4.90;;
28266;SDS011;15525;45.568;5.448;2022-07-09T08:54:00;10.00;;;4.63;;
28266;SDS011;15525;45.568;5.448;2022-07-09T08:56:25;7.97;;;4.53;;
28266;SDS011;15525;45.568;5.448;2022-07-09T08:58:51;8.52;;;4.60;;
28266;SDS011;15525;45.568;5.448;2022-07-09T09:01:16;5.60;;;4.20;;
28266;SDS011;15525;45.568;5.448;2022-07-09T09:03:42;6.18;;;4.20;;
28266;SDS011;15525;45.568;5.448;2022-07-09T09:06:09;6.50;;;4.63;;
28266;SDS011;15525;45.568;5.448;2022-07-09T09:08:36;5.90;;;4.47;;
28266;SDS011;15525;45.568;5.448;2022-07-09T09:11:14;10.80;;;4.25;;
28266;SDS011;15525;45.568;5.448;2022-07-09T09:13:44;9.45;;;5.05;;
28266;SDS011;15525;45.568;5.448;2022-07-09T09:16:14;6.72;;;4.75;;
28266;SDS011;15525;45.568;5.448;2022-07-09T09:18:42;7.28;;;4.35;;
28266;SDS011;15525;45.568;5.448;2022-07-09T09:21:09;6.15;;;4.57;;
28266;SDS011;15525;45.568;5.448;2022-07-09T09:26:23;5.90;;;4.03;;
28266;SDS011;15525;45.568;5.448;2022-07-09T09:28:54;6.80;;;4.43;;
28266;SDS011;15525;45.568;5.448;2022-07-09T09:31:26;5.95;;;3.85;;
28266;SDS011;15525;45.568;5.448;2022-07-09T09:33:56;7.30;;;4.20;;
28266;SDS011;15525;45.568;5.448;2022-07-09T09:36:39;5.68;;;4.00;;
28266;SDS011;15525;45.568;5.448;2022-07-09T09:41:59;4.88;;;3.70;;
28266;SDS011;15525;45.568;5.448;2022-07-09T09:46:56;4.93;;;3.50;;
28266;SDS011;15525;45.568;5.448;2022-07-09T09:49:22;7.32;;;3.95;;
28266;SDS011;15525;45.568;5.448;2022-07-09T09:54:19;7.25;;;3.90;;
28266;SDS011;15525;45.568;5.448;2022-07-09T09:56:47;6.20;;;3.90;;
28266;SDS011;15525;45.568;5.448;2022-07-09T09:59:13;5.43;;;3.90;;
28266;SDS011;15525;45.568;5.448;2022-07-09T10:01:40;4.68;;;3.83;;
28266;SDS011;15525;45.568;5.448;2022-07-09T10:04:06;5.68;;;3.90;;
28266;SDS011;15525;45.568;5.448;2022-07-09T10:06:32;5.93;;;4.00;;
28266;SDS011;15525;45.568;5.448;2022-07-09T10:09:00;5.93;;;4.28;;
28266;SDS011;15525;45.568;5.448;2022-07-09T10:11:36;8.30;;;3.88;;
28266;SDS011;15525;45.568;5.448;2022-07-09T10:14:05;6.90;;;4.13;;
28266;SDS011;15525;45.568;5.448;2022-07-09T10:16:37;6.75;;;4.35;;
28266;SDS011;15525;45.568;5.448;2022-07-09T10:19:04;8.52;;;4.15;;
28266;SDS011;15525;45.568;5.448;2022-07-09T10:21:38;8.02;;;3.92;;
28266;SDS011;15525;45.568;5.448;2022-07-09T10:24:05;7.15;;;4.20;;
28266;SDS011;15525;45.568;5.448;2022-07-09T10:31:49;4.43;;;3.95;;
28266;SDS011;15525;45.568;5.448;2022-07-09T10:34:31;4.95;;;3.50;;
28266;SDS011;15525;45.568;5.448;2022-07-09T10:37:05;4.70;;;3.55;;
28266;SDS011;15525;45.568;5.448;2022-07-09T10:39:31;5.30;;;3.90;;
28266;SDS011;15525;45.568;5.448;2022-07-09T10:41:58;6.15;;;3.92;;
28266;SDS011;15525;45.568;5.448;2022-07-09T10:44:34;4.13;;;3.70;;
28266;SDS011;15525;45.568;5.448;2022-07-09T10:47:02;5.15;;;3.53;;
28266;SDS011;15525;45.568;5.448;2022-07-09T10:49:29;4.70;;;3.63;;
28266;SDS011;15525;45.568;5.448;2022-07-09T10:51:55;10.40;;;3.65;;
28266;SDS011;15525;45.568;5.448;2022-07-09T10:54:22;5.53;;;3.63;;
28266;SDS011;15525;45.568;5.448;2022-07-09T10:56:48;5.63;;;3.30;;
28266;SDS011;15525;45.568;5.448;2022-07-09T10:59:16;5.13;;;4.00;;
28266;SDS011;15525;45.568;5.448;2022-07-09T11:01:45;4.32;;;3.78;;
28266;SDS011;15525;45.568;5.448;2022-07-09T11:04:11;8.13;;;3.75;;
28266;SDS011;15525;45.568;5.448;2022-07-09T11:06:45;4.05;;;3.30;;
28266;SDS011;15525;45.568;5.448;2022-07-09T11:09:12;5.18;;;3.83;;
28266;SDS011;15525;45.568;5.448;2022-07-09T11:11:39;4.78;;;3.78;;
28266;SDS011;15525;45.568;5.448;2022-07-09T11:14:07;5.75;;;3.90;;
28266;SDS011;15525;45.568;5.448;2022-07-09T11:16:32;7.35;;;4.18;;
28266;SDS011;15525;45.568;5.448;2022-07-09T11:18:58;5.32;;;3.92;;
28266;SDS011;15525;45.568;5.448;2022-07-09T11:21:24;5.78;;;4.20;;
28266;SDS011;15525;45.568;5.448;2022-07-09T11:23:50;6.53;;;3.80;;
28266;SDS011;15525;45.568;5.448;2022-07-09T11:26:16;4.97;;;4.45;;
28266;SDS011;15525;45.568;5.448;2022-07-09T11:28:41;4.95;;;3.80;;
28266;SDS011;15525;45.568;5.448;2022-07-09T11:31:09;4.45;;;3.65;;
28266;SDS011;15525;45.568;5.448;2022-07-09T11:33:34;6.18;;;3.80;;
28266;SDS011;15525;45.568;5.448;2022-07-09T11:36:20;5.75;;;3.65;;
28266;SDS011;15525;45.568;5.448;2022-07-09T11:38:52;5.72;;;3.40;;
28266;SDS011;15525;45.568;5.448;2022-07-09T11:41:18;6.22;;;3.60;;
28266;SDS011;15525;45.568;5.448;2022-07-09T11:43:47;6.28;;;3.80;;
28266;SDS011;15525;45.568;5.448;2022-07-09T11:46:17;9.50;;;4.00;;
28266;SDS011;15525;45.568;5.448;2022-07-09T11:48:53;5.65;;;3.50;;
28266;SDS011;15525;45.568;5.448;2022-07-09T11:51:32;6.03;;;4.43;;
28266;SDS011;15525;45.568;5.448;2022-07-09T11:54:01;4.18;;;3.67;;
28266;SDS011;15525;45.568;5.448;2022-07-09T11:56:27;5.57;;;3.65;;
28266;SDS011;15525;45.568;5.448;2022-07-09T11:59:05;5.03;;;3.45;;
28266;SDS011;15525;45.568;5.448;2022-07-09T12:01:30;6.70;;;3.80;;
28266;SDS011;15525;45.568;5.448;2022-07-09T12:03:55;5.47;;;3.40;;
28266;SDS011;15525;45.568;5.448;2022-07-09T12:06:21;3.95;;;3.55;;
28266;SDS011;15525;45.568;5.448;2022-07-09T12:08:47;4.97;;;3.72;;
28266;SDS011;15525;45.568;5.448;2022-07-09T12:11:26;4.63;;;3.28;;
28266;SDS011;15525;45.568;5.448;2022-07-09T12:13:52;9.73;;;4.30;;
28266;SDS011;15525;45.568;5.448;2022-07-09T12:16:18;6.20;;;3.80;;
28266;SDS011;15525;45.568;5.448;2022-07-09T12:18:43;20.55;;;12.70;;
28266;SDS011;15525;45.568;5.448;2022-07-09T12:21:10;4.45;;;3.90;;
28266;SDS011;15525;45.568;5.448;2022-07-09T12:23:35;5.80;;;3.50;;
28266;SDS011;15525;45.568;5.448;2022-07-09T12:26:00;4.85;;;3.35;;
28266;SDS011;15525;45.568;5.448;2022-07-09T12:28:26;5.15;;;4.05;;
28266;SDS011;15525;45.568;5.448;2022-07-09T12:30:51;6.03;;;3.67;;
28266;SDS011;15525;45.568;5.448;2022-07-09T12:33:17;4.05;;;3.65;;
28266;SDS011;15525;45.568;5.448;2022-07-09T12:35:42;4.18;;;3.53;;
28266;SDS011;15525;45.568;5.448;2022-07-09T12:38:07;6.05;;;3.70;;
28266;SDS011;15525;45.568;5.448;2022-07-09T12:40:33;5.25;;;4.15;;
28266;SDS011;15525;45.568;5.448;2022-07-09T12:42:58;11.65;;;4.15;;
28266;SDS011;15525;45.568;5.448;2022-07-09T12:45:24;4.30;;;3.90;;
28266;SDS011;15525;45.568;5.448;2022-07-09T12:47:49;6.68;;;4.22;;
28266;SDS011;15525;45.568;5.448;2022-07-09T12:50:15;5.97;;;3.80;;
28266;SDS011;15525;45.568;5.448;2022-07-09T12:52:40;5.40;;;3.80;;
28266;SDS011;15525;45.568;5.448;2022-07-09T12:55:06;6.03;;;4.10;;
28266;SDS011;15525;45.568;5.448;2022-07-09T12:57:32;7.22;;;3.40;;
28266;SDS011;15525;45.568;5.448;2022-07-09T12:59:58;5.18;;;3.33;;
28266;SDS011;15525;45.568;5.448;2022-07-09T13:02:23;6.72;;;3.97;;
28266;SDS011;15525;45.568;5.448;2022-07-09T13:04:49;7.18;;;3.80;;
28266;SDS011;15525;45.568;5.448;2022-07-09T13:07:14;6.05;;;3.78;;
28266;SDS011;15525;45.568;5.448;2022-07-09T13:09:40;4.38;;;3.40;;
28266;SDS011;15525;45.568;5.448;2022-07-09T13:12:05;6.45;;;3.67;;
28266;SDS011;15525;45.568;5.448;2022-07-09T13:14:31;7.50;;;3.92;;
28266;SDS011;15525;45.568;5.448;2022-07-09T13:16:56;5.75;;;3.63;;
28266;SDS011;15525;45.568;5.448;2022-07-09T13:19:22;5.97;;;3.67;;
28266;SDS011;15525;45.568;5.448;2022-07-09T13:21:47;5.70;;;3.65;;
28266;SDS011;15525;45.568;5.448;2022-07-09T13:24:13;4.70;;;3.53;;
28266;SDS011;15525;45.568;5.448;2022-07-09T13:26:38;4.63;;;3.55;;
28266;SDS011;15525;45.568;5.448;2022-07-09T13:29:06;3.78;;;3.22;;
28266;SDS011;15525;45.568;5.448;2022-07-09T13:31:31;6.72;;;4.18;;
28266;SDS011;15525;45.568;5.448;2022-07-09T13:33:56;7.35;;;4.50;;
28266;SDS011;15525;45.568;5.448;2022-07-09T13:36:22;6.53;;;3.88;;
28266;SDS011;15525;45.568;5.448;2022-07-09T13:38:49;5.00;;;3.55;;
28266;SDS011;15525;45.568;5.448;2022-07-09T13:41:14;7.60;;;4.25;;
28266;SDS011;15525;45.568;5.448;2022-07-09T13:43:42;4.72;;;3.50;;
28266;SDS011;15525;45.568;5.448;2022-07-09T13:46:07;6.63;;;3.78;;
28266;SDS011;15525;45.568;5.448;2022-07-09T13:48:33;4.18;;;3.40;;
28266;SDS011;15525;45.568;5.448;2022-07-09T13:50:58;4.38;;;3.35;;
28266;SDS011;15525;45.568;5.448;2022-07-09T13:53:25;5.13;;;3.85;;
28266;SDS011;15525;45.568;5.448;2022-07-09T13:55:53;6.40;;;3.65;;
28266;SDS011;15525;45.568;5.448;2022-07-09T13:58:19;4.40;;;3.35;;
28266;SDS011;15525;45.568;5.448;2022-07-09T14:00:44;4.82;;;3.55;;
28266;SDS011;15525;45.568;5.448;2022-07-09T14:03:10;6.93;;;3.35;;
28266;SDS011;15525;45.568;5.448;2022-07-09T14:05:35;3.67;;;3.30;;
28266;SDS011;15525;45.568;5.448;2022-07-09T14:08:02;4.63;;;3.28;;
28266;SDS011;15525;45.568;5.448;2022-07-09T14:10:28;5.00;;;3.50;;
28266;SDS011;15525;45.568;5.448;2022-07-09T14:12:54;3.83;;;3.40;;
28266;SDS011;15525;45.568;5.448;2022-07-09T14:15:19;4.60;;;3.30;;
28266;SDS011;15525;45.568;5.448;2022-07-09T14:17:45;3.70;;;3.38;;
28266;SDS011;15525;45.568;5.448;2022-07-09T14:20:10;3.53;;;3.17;;
28266;SDS011;15525;45.568;5.448;2022-07-09T14:22:36;5.13;;;3.60;;
28266;SDS011;15525;45.568;5.448;2022-07-09T14:25:02;5.93;;;3.50;;
28266;SDS011;15525;45.568;5.448;2022-07-09T14:27:28;6.25;;;3.33;;
28266;SDS011;15525;45.568;5.448;2022-07-09T14:29:53;5.05;;;3.70;;
28266;SDS011;15525;45.568;5.448;2022-07-09T14:32:19;5.53;;;3.60;;
28266;SDS011;15525;45.568;5.448;2022-07-09T14:34:44;5.13;;;3.35;;
28266;SDS011;15525;45.568;5.448;2022-07-09T14:37:10;6.05;;;4.00;;
28266;SDS011;15525;45.568;5.448;2022-07-09T14:39:35;4.60;;;3.83;;
28266;SDS011;15525;45.568;5.448;2022-07-09T14:42:01;5.93;;;3.70;;
28266;SDS011;15525;45.568;5.448;2022-07-09T14:44:27;5.40;;;3.60;;
28266;SDS011;15525;45.568;5.448;2022-07-09T14:46:55;5.65;;;3.50;;
28266;SDS011;15525;45.568;5.448;2022-07-09T14:49:23;4.68;;;3.70;;
28266;SDS011;15525;45.568;5.448;2022-07-09T14:51:49;5.68;;;3.50;;
28266;SDS011;15525;45.568;5.448;2022-07-09T14:54:15;5.45;;;3.72;;
28266;SDS011;15525;45.568;5.448;2022-07-09T14:56:41;3.72;;;3.30;;